Latest Weather Observations for Fawkner Beacon

IDV60801

Issued at 1:32 pm EST Wednesday 27 July 2016 (issued every 30 minutes, with the page automatically refreshed every 10 minutes)

About weather observations | Map of weather stations | Latest weather observations for VIC | Other Formats
Station Details ID: 086376 Name: FAWKNER BEACON Lat: -37.91 Lon: 144.93 Height: 17.0 m
Data from the previous 72 hours. | See also: Recent months for locations in Victoria
Date/Time
EST
Temp
°C
App
Temp
°C
Dew
Point
°C
Rel
Hum
%
Delta-T
°C
Wind Press
QNH
hPa
Press
MSL
hPa
Rain since
9am
mm
Dir  Spd
km/h
Gust
km/h
Spd
kts
Gust
kts
27/01:30pm - - - - - WSW 37 44 20 24 - - -
27/01:00pm - - - - - WSW 33 41 18 22 - - -
27/12:30pm - - - - - WSW 30 35 16 19 - - -
27/12:00pm - - - - - WSW 30 35 16 19 - - -
27/11:30am - - - - - W 24 28 13 15 - - -
27/11:00am - - - - - WSW 30 35 16 19 - - -
27/10:30am - - - - - WSW 30 32 16 17 - - -
27/10:00am - - - - - WSW 32 39 17 21 - - -
27/09:30am - - - - - WSW 28 33 15 18 - - -
27/09:00am - - - - - WSW 35 43 19 23 - - -
27/08:30am - - - - - WSW 39 48 21 26 - - -
27/08:00am - - - - - WSW 37 44 20 24 - - -
27/07:30am - - - - - W 30 41 16 22 - - -
27/07:00am - - - - - WNW 24 30 13 16 - - -
27/06:30am - - - - - NW 24 28 13 15 - - -
27/06:00am - - - - - NW 26 30 14 16 - - -
27/05:30am - - - - - NW 26 32 14 17 - - -
27/05:00am - - - - - NNW 24 28 13 15 - - -
27/04:30am - - - - - N 28 35 15 19 - - -
27/04:00am - - - - - N 30 33 16 18 - - -
27/03:30am - - - - - N 33 41 18 22 - - -
27/03:00am - - - - - N 35 41 19 22 - - -
27/02:30am - - - - - N 37 44 20 24 - - -
27/02:00am - - - - - N 41 46 22 25 - - -
27/01:30am - - - - - N 39 46 21 25 - - -
27/01:00am - - - - - N 41 48 22 26 - - -
27/12:30am - - - - - N 43 52 23 28 - - -
27/12:00am - - - - - N 46 59 25 32 - - -
 
Date/Time
EST
Temp
°C
App
Temp
°C
Dew
Point
°C
Rel
Hum
%
Delta-T
°C
Wind Press
QNH
hPa
Press
MSL
hPa
Rain since
9am
mm
Dir  Spd
km/h
Gust
km/h
Spd
kts
Gust
kts
26/11:30pm - - - - - N 44 54 24 29 - - -
26/11:00pm - - - - - N 43 52 23 28 - - -
26/10:30pm - - - - - N 48 59 26 32 - - -
26/10:00pm - - - - - N 50 61 27 33 - - -
26/09:30pm - - - - - N 41 50 22 27 - - -
26/09:00pm - - - - - N 41 52 22 28 - - -
26/08:30pm - - - - - N 39 46 21 25 - - -
26/08:00pm - - - - - N 43 50 23 27 - - -
26/07:30pm - - - - - N 39 48 21 26 - - -
26/07:00pm - - - - - N 43 50 23 27 - - -
26/06:30pm - - - - - N 48 59 26 32 - - -
26/06:00pm - - - - - N 43 52 23 28 - - -
26/05:30pm - - - - - N 44 54 24 29 - - -
26/05:00pm - - - - - N 43 59 23 32 - - -
26/04:30pm - - - - - NNW 39 46 21 25 - - -
26/04:00pm - - - - - N 35 43 19 23 - - -
26/03:41pm - - - - - N 30 48 16 26 - - -
26/03:30pm - - - - - N 28 32 15 17 - - -
26/03:00pm - - - - - N 32 39 17 21 - - -
26/02:30pm - - - - - NNW 39 50 21 27 - - -
26/02:00pm - - - - - NNW 44 52 24 28 - - -
26/01:30pm - - - - - NNW 43 50 23 27 - - -
26/01:00pm - - - - - NNW 43 50 23 27 - - -
26/12:30pm - - - - - NNW 43 48 23 26 - - -
26/12:00pm - - - - - NNW 48 59 26 32 - - -
26/11:30am - - - - - NNW 46 57 25 31 - - -
26/11:00am - - - - - N 39 46 21 25 - - -
26/10:30am - - - - - N 37 50 20 27 - - -
26/10:00am - - - - - N 37 44 20 24 - - -
26/09:30am - - - - - N 39 46 21 25 - - -
26/09:00am - - - - - NNW 35 43 19 23 - - -
26/08:30am - - - - - NNW 32 39 17 21 - - -
26/08:00am - - - - - NNW 32 35 17 19 - - -
26/07:30am - - - - - NNW 26 30 14 16 - - -
26/07:00am - - - - - NNW 35 41 19 22 - - -
26/06:30am - - - - - NNW 30 35 16 19 - - -
26/06:00am - - - - - NNW 33 41 18 22 - - -
26/05:30am - - - - - NW 35 43 19 23 - - -
26/05:00am - - - - - NW 32 41 17 22 - - -
26/04:30am - - - - - NW 30 39 16 21 - - -
26/04:00am - - - - - NW 37 44 20 24 - - -
26/03:30am - - - - - NW 39 46 21 25 - - -
26/03:00am - - - - - NW 37 46 20 25 - - -
26/02:30am - - - - - NW 35 43 19 23 - - -
26/02:00am - - - - - NW 35 44 19 24 - - -
26/01:47am - - - - - NW 37 54 20 29 - - -
26/01:30am - - - - - NW 35 41 19 22 - - -
26/01:00am - - - - - NW 33 43 18 23 - - -
26/12:30am - - - - - NW 43 52 23 28 - - -
26/12:00am - - - - - WNW 37 44 20 24 - - -
 
Date/Time
EST
Temp
°C
App
Temp
°C
Dew
Point
°C
Rel
Hum
%
Delta-T
°C
Wind Press
QNH
hPa
Press
MSL
hPa
Rain since
9am
mm
Dir  Spd
km/h
Gust
km/h
Spd
kts
Gust
kts
25/11:30pm - - - - - WNW 37 46 20 25 - - -
25/11:00pm - - - - - WNW 44 54 24 29 - - -
25/10:30pm - - - - - WNW 44 54 24 29 - - -
25/10:00pm - - - - - WNW 48 61 26 33 - - -
25/09:30pm - - - - - WNW 52 63 28 34 - - -
25/09:00pm - - - - - WNW 50 61 27 33 - - -
25/08:30pm - - - - - WNW 50 63 27 34 - - -
25/08:02pm - - - - - WNW 56 76 30 41 - - -
25/08:00pm - - - - - WNW 56 67 30 36 - - -
25/07:49pm - - - - - WNW 57 76 31 41 - - -
25/07:30pm - - - - - NW 48 61 26 33 - - -
25/07:10pm - - - - - NW 54 72 29 39 - - -
25/07:00pm - - - - - NW 54 70 29 38 - - -
25/06:58pm - - - - - NW 54 67 29 36 - - -
25/06:32pm - - - - - WNW 65 85 35 46 - - -
25/06:30pm - - - - - WNW 65 85 35 46 - - -
25/06:28pm - - - - - WNW 65 85 35 46 - - -
25/06:18pm - - - - - WNW 54 83 29 45 - - -
25/06:12pm - - - - - NW 56 69 30 37 - - -
25/06:00pm - - - - - NNW 54 70 29 38 - - -
25/05:56pm - - - - - NNW 50 69 27 37 - - -
25/05:30pm - - - - - N 52 63 28 34 - - -
25/05:00pm - - - - - N 56 67 30 36 - - -
25/04:30pm - - - - - N 57 70 31 38 - - -
25/04:00pm - - - - - N 56 69 30 37 - - -
25/03:30pm - - - - - NNW 56 70 30 38 - - -
25/03:00pm - - - - - N 48 59 26 32 - - -
25/02:30pm - - - - - N 46 59 25 32 - - -
25/02:00pm - - - - - NNW 39 50 21 27 - - -
25/01:30pm - - - - - NNW 28 43 15 23 - - -
25/01:00pm - - - - - NW 39 48 21 26 - - -
25/12:30pm - - - - - NW 41 48 22 26 - - -
25/12:00pm - - - - - NW 41 48 22 26 - - -
25/11:30am - - - - - NW 39 50 21 27 - - -
25/11:00am - - - - - NW 39 46 21 25 - - -
25/10:30am - - - - - NW 41 46 22 25 - - -
25/10:00am - - - - - WNW 32 41 17 22 - - -
25/09:30am - - - - - NW 33 43 18 23 - - -
25/09:00am - - - - - NW 35 43 19 23 - - -
25/08:30am - - - - - NW 39 50 21 27 - - -
25/08:00am - - - - - NW 41 48 22 26 - - -
25/07:30am - - - - - NNW 32 39 17 21 - - -
25/07:00am - - - - - N 28 33 15 18 - - -
25/06:30am - - - - - N 28 33 15 18 - - -
25/06:00am - - - - - NNW 30 35 16 19 - - -
25/05:30am - - - - - N 30 33 16 18 - - -
25/05:00am - - - - - NNW 32 35 17 19 - - -
25/04:30am - - - - - N 33 39 18 21 - - -
25/04:00am - - - - - N 32 43 17 23 - - -
25/03:30am - - - - - N 35 43 19 23 - - -
25/03:00am - - - - - N 35 41 19 22 - - -
25/02:30am - - - - - N 33 41 18 22 - - -
25/02:00am - - - - - N 33 41 18 22 - - -
25/01:30am - - - - - N 32 39 17 21 - - -
25/01:00am - - - - - N 33 41 18 22 - - -
25/12:30am - - - - - N 33 41 18 22 - - -
25/12:00am - - - - - N 33 41 18 22 - - -
 
Date/Time
EST
Temp
°C
App
Temp
°C
Dew
Point
°C
Rel
Hum
%
Delta-T
°C
Wind Press
QNH
hPa
Press
MSL
hPa
Rain since
9am
mm
Dir  Spd
km/h
Gust
km/h
Spd
kts
Gust
kts
24/11:30pm - - - - - N 33 39 18 21 - - -
24/11:00pm - - - - - N 32 35 17 19 - - -
24/10:30pm - - - - - N 32 39 17 21 - - -
24/10:00pm - - - - - N 33 39 18 21 - - -
24/09:30pm - - - - - N 39 44 21 24 - - -
24/09:00pm - - - - - N 41 48 22 26 - - -
24/08:30pm - - - - - N 43 52 23 28 - - -
24/08:00pm - - - - - N 43 50 23 27 - - -
24/07:30pm - - - - - N 35 44 19 24 - - -
24/07:00pm - - - - - N 39 50 21 27 - - -
24/06:30pm - - - - - N 39 48 21 26 - - -
24/06:00pm - - - - - N 43 50 23 27 - - -
24/05:30pm - - - - - N 41 48 22 26 - - -
24/05:00pm - - - - - N 39 46 21 25 - - -
24/04:30pm - - - - - N 39 46 21 25 - - -
24/04:00pm - - - - - N 39 46 21 25 - - -
24/03:30pm - - - - - N 39 44 21 24 - - -
24/03:00pm - - - - - N 39 46 21 25 - - -
24/02:30pm - - - - - N 43 50 23 27 - - -
24/02:00pm - - - - - N 44 52 24 28 - - -

Other Formats:

Comma delimited format used in spreadsheet applications
http://www.bom.gov.au/fwo/IDV60801/IDV60801.95872.axf

JavaScript Object Notation format (JSON) in row-major order
http://www.bom.gov.au/fwo/IDV60801/IDV60801.95872.json